createdAt,value
2023-01-23T00:01:31.134Z,4.50
2023-01-23T00:03:59.319Z,4.47
2023-01-23T00:06:27.320Z,4.60
2023-01-23T00:08:56.768Z,4.13
2023-01-23T00:11:26.064Z,3.93
2023-01-23T00:13:54.005Z,3.60
2023-01-23T00:16:23.077Z,4.40
2023-01-23T00:18:50.599Z,4.47
2023-01-23T00:21:21.047Z,4.40
2023-01-23T00:23:51.842Z,4.00
2023-01-23T00:26:21.036Z,4.50
2023-01-23T00:28:48.397Z,4.07
2023-01-23T00:31:21.108Z,3.97
2023-01-23T00:33:49.111Z,3.73
2023-01-23T00:36:16.821Z,4.50
2023-01-23T00:38:44.520Z,4.13
2023-01-23T00:41:12.751Z,3.97
2023-01-23T00:43:40.556Z,4.50
2023-01-23T00:46:08.255Z,3.67
2023-01-23T00:48:36.352Z,4.57
2023-01-23T00:51:04.234Z,5.03
2023-01-23T00:53:32.291Z,4.67
2023-01-23T00:55:59.867Z,4.57
2023-01-23T00:58:27.847Z,4.60
2023-01-23T01:00:55.991Z,4.60
2023-01-23T01:03:25.337Z,4.63
2023-01-23T01:05:53.159Z,4.50
2023-01-23T01:08:24.529Z,4.27
2023-01-23T01:10:52.580Z,4.00
2023-01-23T01:13:21.547Z,4.07
2023-01-23T01:15:54.124Z,4.63
2023-01-23T01:18:22.816Z,4.00
2023-01-23T01:20:50.543Z,3.90
2023-01-23T01:23:18.677Z,4.43
2023-01-23T01:25:47.117Z,4.30
2023-01-23T01:28:14.958Z,4.03
2023-01-23T01:30:42.617Z,4.17
2023-01-23T01:33:11.192Z,4.93
2023-01-23T01:35:40.001Z,4.60
2023-01-23T01:38:08.995Z,3.90
2023-01-23T01:40:37.292Z,4.43
2023-01-23T01:43:08.307Z,4.40
2023-01-23T01:46:03.099Z,3.97
2023-01-23T01:48:40.763Z,4.37
2023-01-23T01:51:29.846Z,3.80
2023-01-23T01:54:20.694Z,4.57
2023-01-23T01:56:58.418Z,4.40
2023-01-23T01:59:27.683Z,4.17
2023-01-23T02:01:58.828Z,4.20
2023-01-23T02:04:26.046Z,4.60
2023-01-23T02:06:53.906Z,4.57
2023-01-23T02:09:26.910Z,4.10
2023-01-23T02:11:54.585Z,4.50
2023-01-23T02:14:25.800Z,4.53
2023-01-23T02:17:00.362Z,4.40
2023-01-23T02:19:27.496Z,4.87
2023-01-23T02:22:04.113Z,4.87
2023-01-23T02:24:35.166Z,4.82
2023-01-23T02:27:03.309Z,5.27
2023-01-23T02:29:43.303Z,5.37
2023-01-23T02:32:11.743Z,5.00
2023-01-23T02:34:39.003Z,4.93
2023-01-23T02:37:06.304Z,5.03
2023-01-23T02:39:34.567Z,5.70
2023-01-23T02:42:01.734Z,5.27
2023-01-23T02:44:32.013Z,5.27
2023-01-23T02:47:01.391Z,5.50
2023-01-23T02:49:30.482Z,5.50
2023-01-23T02:51:58.668Z,4.97
2023-01-23T02:54:26.853Z,5.47
2023-01-23T02:56:54.738Z,5.87
2023-01-23T02:59:40.831Z,5.70
2023-01-23T03:02:08.370Z,5.47
2023-01-23T03:04:36.387Z,6.27
2023-01-23T03:07:04.736Z,5.90
2023-01-23T03:09:32.337Z,6.13
2023-01-23T03:12:00.973Z,6.53
2023-01-23T03:14:30.167Z,6.00
2023-01-23T03:16:58.701Z,5.73
2023-01-23T03:19:27.224Z,5.60
2023-01-23T03:21:54.770Z,6.27
2023-01-23T03:24:22.727Z,6.00
2023-01-23T03:26:50.897Z,6.00
2023-01-23T03:29:44.745Z,5.83
2023-01-23T03:32:12.794Z,6.50
2023-01-23T03:34:41.581Z,6.53
2023-01-23T03:37:09.522Z,6.57
2023-01-23T03:39:55.758Z,6.40
2023-01-23T03:42:24.503Z,6.17
2023-01-23T03:44:52.882Z,6.83
2023-01-23T03:47:20.904Z,6.60
2023-01-23T03:49:48.729Z,6.00
2023-01-23T03:52:16.277Z,7.17
2023-01-23T03:54:43.973Z,5.90
2023-01-23T03:57:11.535Z,6.20
2023-01-23T03:59:39.635Z,5.63
2023-01-23T04:02:07.666Z,5.63
2023-01-23T04:04:34.832Z,5.63
2023-01-23T04:07:02.584Z,5.70
2023-01-23T04:09:30.433Z,5.30
2023-01-23T04:11:58.560Z,5.73
2023-01-23T04:14:26.590Z,5.17
2023-01-23T04:16:54.725Z,5.23
2023-01-23T04:19:22.955Z,5.83
2023-01-23T04:21:50.918Z,5.67
2023-01-23T04:24:18.580Z,5.40
2023-01-23T04:26:46.154Z,5.77
2023-01-23T04:29:13.868Z,6.13
2023-01-23T04:31:41.809Z,5.47
2023-01-23T04:34:09.591Z,5.80
2023-01-23T04:36:37.542Z,5.77
2023-01-23T04:39:05.094Z,5.07
2023-01-23T04:41:33.670Z,5.47
2023-01-23T04:44:20.407Z,5.97
2023-01-23T04:46:53.040Z,5.80
2023-01-23T04:49:40.666Z,5.70
2023-01-23T04:54:36.934Z,5.30
2023-01-23T04:57:05.363Z,5.30
2023-01-23T04:59:33.474Z,5.17
2023-01-23T05:02:02.419Z,5.70
2023-01-23T05:04:30.561Z,5.70
2023-01-23T05:06:58.596Z,5.53
2023-01-23T05:09:27.060Z,5.70
2023-01-23T05:11:54.992Z,5.97
2023-01-23T05:14:24.356Z,5.13
2023-01-23T05:16:52.146Z,5.67
2023-01-23T05:19:20.195Z,6.27
2023-01-23T05:21:48.897Z,6.27
2023-01-23T05:24:16.898Z,5.10
2023-01-23T05:26:45.215Z,5.70
2023-01-23T05:29:13.269Z,5.77
2023-01-23T05:31:41.889Z,5.37
2023-01-23T05:34:09.707Z,4.80
2023-01-23T05:36:37.686Z,5.53
2023-01-23T05:39:05.191Z,4.97
2023-01-23T05:41:33.519Z,5.20
2023-01-23T05:44:01.238Z,4.37
2023-01-23T05:46:29.642Z,4.53
2023-01-23T05:48:57.512Z,4.27
2023-01-23T05:51:31.635Z,4.73
2023-01-23T05:54:02.819Z,5.43
2023-01-23T05:56:30.517Z,4.83
2023-01-23T05:58:58.508Z,5.47
2023-01-23T06:01:26.531Z,4.83
2023-01-23T06:03:54.659Z,5.27
2023-01-23T06:06:22.396Z,4.97
2023-01-23T06:08:50.158Z,5.03
2023-01-23T06:11:18.276Z,4.60
2023-01-23T06:13:46.233Z,4.67
2023-01-23T06:16:16.922Z,4.60
2023-01-23T06:18:45.129Z,4.93
2023-01-23T06:21:12.985Z,5.27
2023-01-23T06:23:40.749Z,4.40
2023-01-23T06:26:08.713Z,4.77
2023-01-23T06:28:36.351Z,4.90
2023-01-23T06:31:04.281Z,5.10
2023-01-23T06:33:32.466Z,4.50
2023-01-23T06:36:00.841Z,4.90
2023-01-23T06:38:28.730Z,5.13
2023-01-23T06:40:57.881Z,4.83
2023-01-23T06:43:25.295Z,5.20
2023-01-23T06:45:53.229Z,5.73
2023-01-23T06:48:22.014Z,5.70
2023-01-23T06:50:49.714Z,5.00
2023-01-23T06:53:17.400Z,5.77
2023-01-23T06:55:45.214Z,5.80
2023-01-23T06:58:12.789Z,4.87
2023-01-23T07:00:40.753Z,5.30
2023-01-23T07:03:08.983Z,5.73
2023-01-23T07:05:39.565Z,4.97
2023-01-23T07:08:08.701Z,5.10
2023-01-23T07:10:40.773Z,4.43
2023-01-23T07:13:09.413Z,5.10
2023-01-23T07:15:37.663Z,5.07
2023-01-23T07:18:05.896Z,5.50
2023-01-23T07:20:33.542Z,5.70
2023-01-23T07:23:03.922Z,6.17
2023-01-23T07:25:32.788Z,5.83
2023-01-23T07:28:01.558Z,5.30
2023-01-23T07:30:29.562Z,5.90
2023-01-23T07:32:58.465Z,5.40
2023-01-23T07:35:25.552Z,5.93
2023-01-23T07:37:53.827Z,5.90
2023-01-23T07:40:22.268Z,6.13
2023-01-23T07:42:50.603Z,5.80
2023-01-23T07:45:18.739Z,5.57
2023-01-23T07:47:46.796Z,6.27
2023-01-23T07:50:15.052Z,6.17
2023-01-23T07:52:42.944Z,5.80
2023-01-23T07:55:10.774Z,6.80
2023-01-23T07:57:38.430Z,6.70
2023-01-23T08:00:08.661Z,6.03
2023-01-23T08:02:37.007Z,6.20
2023-01-23T08:05:04.906Z,6.40
2023-01-23T08:07:33.020Z,6.67
2023-01-23T08:10:01.188Z,6.17
2023-01-23T08:12:29.267Z,6.27
2023-01-23T08:14:57.553Z,6.57
2023-01-23T08:17:25.591Z,6.60
2023-01-23T08:19:53.588Z,7.27
2023-01-23T08:22:21.788Z,8.47
2023-01-23T08:24:50.270Z,8.07
2023-01-23T08:27:17.889Z,7.50
2023-01-23T08:29:46.073Z,7.57
2023-01-23T08:32:16.879Z,11.73
2023-01-23T08:34:44.651Z,14.60
2023-01-23T08:37:12.688Z,14.53
2023-01-23T08:39:40.249Z,15.27
2023-01-23T08:42:08.425Z,15.07
2023-01-23T08:44:36.473Z,11.47
2023-01-23T08:47:04.639Z,10.30
2023-01-23T08:49:34.868Z,7.23
2023-01-23T08:52:02.517Z,5.97
2023-01-23T08:54:30.752Z,5.30
2023-01-23T08:56:58.782Z,4.83
2023-01-23T08:59:27.525Z,2.60
2023-01-23T09:01:55.909Z,1.90
2023-01-23T09:04:24.033Z,1.20
2023-01-23T09:06:52.191Z,0.97
2023-01-23T09:09:20.066Z,0.90
2023-01-23T09:11:47.645Z,0.80
2023-01-23T09:14:15.873Z,0.90
2023-01-23T09:16:46.507Z,0.73
2023-01-23T09:19:15.875Z,0.80
2023-01-23T09:21:43.886Z,1.30
2023-01-23T09:24:12.284Z,1.53
2023-01-23T09:26:40.357Z,1.77
2023-01-23T09:29:08.521Z,1.73
2023-01-23T09:31:36.723Z,0.70
2023-01-23T09:34:04.569Z,1.27
2023-01-23T09:36:42.357Z,1.07
2023-01-23T09:39:10.938Z,1.20
2023-01-23T09:41:39.353Z,0.80
2023-01-23T09:44:22.649Z,0.97
2023-01-23T09:46:56.586Z,1.10
2023-01-23T09:49:31.383Z,1.00
2023-01-23T09:52:26.541Z,0.50
2023-01-23T09:55:03.883Z,0.73
2023-01-23T09:57:36.142Z,0.80
2023-01-23T10:00:07.641Z,0.70
2023-01-23T10:02:35.710Z,0.70
2023-01-23T10:05:03.872Z,0.90
2023-01-23T10:08:11.258Z,0.50
2023-01-23T10:10:54.149Z,0.47
2023-01-23T10:13:48.703Z,0.50
2023-01-23T10:16:48.821Z,0.80
2023-01-23T10:19:57.842Z,0.60
2023-01-23T10:22:38.087Z,1.08
2023-01-23T10:25:26.374Z,0.50
2023-01-23T10:27:56.488Z,0.57
2023-01-23T10:30:29.868Z,0.50
2023-01-23T10:33:01.600Z,0.57
2023-01-23T10:36:02.373Z,1.00
2023-01-23T10:38:55.150Z,0.37
2023-01-23T10:41:27.703Z,1.00
2023-01-23T10:43:56.776Z,0.53
2023-01-23T10:46:38.731Z,0.57
2023-01-23T10:49:13.749Z,0.60
2023-01-23T10:51:48.115Z,0.43
2023-01-23T10:54:31.316Z,0.40
2023-01-23T10:57:04.791Z,0.60
2023-01-23T10:59:48.867Z,0.70
2023-01-23T11:02:18.999Z,0.53
2023-01-23T11:04:48.095Z,0.50
2023-01-23T11:07:19.970Z,1.57
2023-01-23T11:09:49.986Z,0.30
2023-01-23T11:12:56.286Z,0.50
2023-01-23T11:15:38.163Z,0.70
2023-01-23T11:18:32.436Z,0.60
2023-01-23T11:21:00.150Z,0.60
2023-01-23T11:23:27.002Z,0.30
2023-01-23T11:25:55.015Z,0.50
2023-01-23T11:28:34.313Z,0.80
2023-01-23T11:31:16.268Z,0.50
2023-01-23T11:33:53.214Z,28.93
2023-01-23T11:36:19.850Z,2.97
2023-01-23T11:38:54.867Z,2.50
2023-01-23T11:41:31.780Z,26.57
2023-01-23T11:44:08.103Z,11.17
2023-01-23T11:46:46.196Z,2.80
2023-01-23T11:49:23.537Z,0.50
2023-01-23T11:54:32.780Z,0.30
2023-01-23T11:57:08.610Z,0.53
2023-01-23T12:00:06.816Z,1.70
2023-01-23T12:05:37.814Z,0.50
2023-01-23T12:08:11.225Z,0.30
2023-01-23T12:10:48.099Z,1.67
2023-01-23T12:14:03.858Z,0.65
2023-01-23T12:16:49.805Z,0.57
2023-01-23T12:19:28.878Z,0.57
2023-01-23T12:22:08.261Z,0.53
2023-01-23T12:25:16.577Z,0.40
2023-01-23T12:30:52.039Z,0.57
2023-01-23T12:33:25.387Z,0.60
2023-01-23T12:36:17.637Z,0.20
2023-01-23T12:39:05.904Z,0.20
2023-01-23T12:41:46.614Z,1.77
2023-01-23T12:44:17.996Z,1.20
2023-01-23T12:47:01.060Z,1.50
2023-01-23T12:49:43.356Z,1.83
2023-01-23T12:52:38.663Z,0.83
2023-01-23T12:55:21.976Z,3.23
2023-01-23T12:58:00.265Z,1.80
2023-01-23T13:00:41.482Z,0.77
2023-01-23T13:03:37.414Z,0.80
2023-01-23T13:06:44.308Z,0.70
2023-01-23T13:09:40.305Z,2.17
2023-01-23T13:12:19.936Z,0.50
2023-01-23T13:17:37.911Z,0.20
2023-01-23T13:20:47.594Z,0.20
2023-01-23T13:23:32.894Z,0.30
2023-01-23T13:26:19.673Z,0.33
2023-01-23T13:29:32.661Z,0.28
2023-01-23T13:32:40.581Z,0.30
2023-01-23T13:35:40.232Z,0.30
2023-01-23T13:38:37.789Z,0.40
2023-01-23T13:41:18.644Z,0.40
2023-01-23T13:44:19.064Z,0.70
2023-01-23T14:24:25.119Z,0.60
2023-01-23T14:27:07.005Z,0.60
2023-01-23T14:29:35.836Z,0.40
2023-01-23T14:32:03.660Z,0.27
2023-01-23T14:34:31.528Z,0.20
2023-01-23T14:37:06.351Z,0.80
2023-01-23T14:39:34.725Z,0.73
2023-01-23T14:42:02.789Z,0.30
2023-01-23T14:44:38.079Z,0.50
2023-01-23T14:47:05.820Z,0.40
2023-01-23T14:49:36.638Z,0.70
2023-01-23T14:52:06.152Z,0.63
2023-01-23T14:54:34.661Z,0.77
2023-01-23T14:57:03.036Z,0.80
2023-01-23T14:59:33.975Z,0.50
2023-01-23T15:02:07.702Z,0.60
2023-01-23T15:04:44.586Z,0.73
2023-01-23T15:07:17.393Z,0.80
2023-01-23T15:09:46.607Z,0.40
2023-01-23T15:12:17.410Z,0.67
2023-01-23T15:14:45.337Z,0.30
2023-01-23T15:17:20.141Z,0.60
2023-01-23T15:19:51.833Z,0.77
2023-01-23T15:22:22.746Z,0.57
2023-01-23T15:24:57.550Z,0.30
2023-01-23T15:27:31.120Z,0.37
2023-01-23T15:30:28.866Z,0.50
2023-01-23T15:45:16.479Z,0.77
2023-01-23T15:47:44.420Z,0.70
2023-01-23T15:50:13.316Z,0.43
2023-01-23T15:52:47.457Z,0.50
2023-01-23T15:55:15.405Z,0.30
2023-01-23T15:57:43.364Z,0.40
2023-01-23T16:00:19.061Z,0.37
2023-01-23T16:02:56.186Z,0.70
2023-01-23T16:05:25.520Z,0.47
2023-01-23T16:07:53.173Z,0.67
2023-01-23T16:10:58.307Z,0.60
2023-01-23T16:13:26.316Z,1.03
2023-01-23T16:15:54.028Z,0.60
2023-01-23T16:18:23.928Z,1.20
2023-01-23T16:20:51.608Z,0.90
2023-01-23T16:23:22.796Z,0.70
2023-01-23T16:25:56.330Z,0.70
2023-01-23T16:28:24.418Z,0.50
2023-01-23T16:30:52.335Z,0.60
2023-01-23T16:33:20.877Z,1.00
2023-01-23T16:35:48.597Z,1.07
2023-01-23T16:38:22.770Z,0.53
2023-01-23T16:40:51.796Z,0.70
2023-01-23T16:43:20.389Z,0.40
2023-01-23T16:45:48.090Z,0.90
2023-01-23T16:48:26.333Z,0.50
2023-01-23T16:50:56.858Z,0.50
2023-01-23T16:53:26.348Z,0.60
2023-01-23T16:55:54.590Z,0.40
2023-01-23T16:59:00.508Z,0.50
2023-01-23T17:01:28.685Z,0.60
2023-01-23T17:04:03.094Z,1.00
2023-01-23T17:06:30.028Z,0.50
2023-01-23T17:08:57.837Z,0.67
2023-01-23T17:11:34.233Z,0.50
2023-01-23T17:14:07.050Z,0.73
2023-01-23T17:16:35.073Z,0.70
2023-01-23T17:19:02.827Z,0.60
2023-01-23T17:21:32.945Z,0.70
2023-01-23T17:24:00.333Z,0.50
2023-01-23T17:26:28.458Z,0.70
2023-01-23T17:28:56.471Z,0.87
2023-01-23T17:31:24.748Z,0.70
2023-01-23T17:33:52.908Z,0.67
2023-01-23T17:36:20.407Z,0.60
2023-01-23T17:38:48.421Z,0.43
2023-01-23T17:41:15.779Z,0.50
2023-01-23T17:43:49.016Z,0.70
2023-01-23T17:46:39.774Z,0.60
2023-01-23T17:49:36.311Z,0.57
2023-01-23T17:52:04.466Z,0.63
2023-01-23T17:54:33.144Z,0.43
2023-01-23T17:57:00.814Z,0.60
2023-01-23T17:59:28.704Z,0.60
2023-01-23T18:01:56.639Z,0.40
2023-01-23T18:04:24.865Z,0.53
2023-01-23T18:06:52.721Z,0.60
2023-01-23T18:09:21.366Z,0.90
2023-01-23T18:11:55.272Z,0.43
2023-01-23T18:14:33.545Z,0.40
2023-01-23T18:17:20.718Z,0.50
2023-01-23T18:19:51.701Z,0.82
2023-01-23T18:22:20.267Z,0.70
2023-01-23T18:24:49.728Z,1.17
2023-01-23T18:27:25.830Z,0.40
2023-01-23T18:30:09.164Z,0.45
2023-01-23T18:32:50.789Z,0.87
2023-01-23T18:35:44.330Z,0.60
2023-01-23T18:38:16.822Z,0.50
2023-01-23T18:41:08.591Z,0.40
2023-01-23T18:43:39.157Z,0.60
2023-01-23T18:46:35.999Z,0.80
2023-01-23T18:49:05.850Z,0.90
2023-01-23T18:51:47.302Z,1.13
2023-01-23T18:54:29.046Z,1.20
2023-01-23T18:56:55.906Z,1.30
2023-01-23T18:59:28.417Z,1.20
2023-01-23T19:02:28.476Z,0.93
2023-01-23T19:05:28.885Z,0.80
2023-01-23T19:07:57.558Z,0.97
2023-01-23T19:10:40.094Z,0.70
2023-01-23T19:13:42.291Z,1.20
2023-01-23T19:16:31.646Z,1.10
2023-01-23T19:19:26.926Z,1.50
2023-01-23T19:22:01.058Z,1.80
2023-01-23T19:24:30.592Z,1.20
2023-01-23T19:27:00.173Z,0.93
2023-01-23T19:29:29.061Z,1.20
2023-01-23T19:32:06.193Z,0.87
2023-01-23T19:34:34.166Z,0.70
2023-01-23T19:37:02.540Z,0.80
2023-01-23T19:39:30.942Z,0.60
2023-01-23T19:41:59.237Z,0.70
2023-01-23T19:44:28.974Z,0.63
2023-01-23T19:46:56.736Z,0.83
2023-01-23T19:49:25.265Z,1.03
2023-01-23T19:51:53.229Z,1.00
2023-01-23T19:54:23.006Z,0.90
2023-01-23T19:56:52.471Z,1.10
2023-01-23T19:59:20.928Z,0.70
2023-01-23T20:01:48.756Z,0.80
2023-01-23T20:04:20.973Z,1.00
2023-01-23T20:06:54.653Z,0.90
2023-01-23T20:09:22.550Z,0.90
2023-01-23T20:11:50.461Z,1.00
2023-01-23T20:14:18.655Z,1.00
2023-01-23T20:16:46.664Z,1.00
2023-01-23T20:19:15.321Z,0.80
2023-01-23T20:21:43.556Z,1.10
2023-01-23T20:24:11.520Z,1.13
2023-01-23T20:26:39.362Z,1.20
2023-01-23T20:29:08.040Z,1.13
2023-01-23T20:31:36.069Z,1.30
2023-01-23T20:34:04.471Z,1.50
2023-01-23T20:36:32.550Z,1.10
2023-01-23T20:39:00.056Z,1.60
2023-01-23T20:41:27.971Z,1.30
2023-01-23T20:43:55.184Z,1.30
2023-01-23T20:46:23.275Z,1.37
2023-01-23T20:48:51.370Z,1.00
2023-01-23T20:51:19.511Z,1.00
2023-01-23T20:53:47.186Z,1.10
2023-01-23T20:56:19.015Z,1.13
2023-01-23T20:59:06.267Z,1.20
2023-01-23T21:01:54.737Z,1.50
2023-01-23T21:04:22.501Z,1.73
2023-01-23T21:06:50.094Z,1.77
2023-01-23T21:09:18.361Z,1.50
2023-01-23T21:11:46.125Z,1.23
2023-01-23T21:14:14.339Z,1.50
2023-01-23T21:16:42.100Z,1.47
2023-01-23T21:19:09.905Z,1.50
2023-01-23T21:21:37.555Z,1.17
2023-01-23T21:24:06.038Z,1.57
2023-01-23T21:26:33.908Z,1.20
2023-01-23T21:29:02.164Z,1.60
2023-01-23T21:31:33.594Z,1.37
2023-01-23T21:34:02.592Z,1.40
2023-01-23T21:36:31.823Z,1.40
2023-01-23T21:38:58.923Z,1.10
2023-01-23T21:41:27.511Z,1.20
2023-01-23T21:43:55.226Z,1.20
2023-01-23T21:46:22.981Z,1.17
2023-01-23T21:48:51.994Z,1.40
2023-01-23T21:51:22.799Z,1.20
2023-01-23T21:53:50.603Z,1.27
2023-01-23T21:56:19.286Z,1.23
2023-01-23T21:58:50.214Z,1.40
2023-01-23T22:01:39.630Z,1.50
2023-01-23T22:04:18.455Z,1.20
2023-01-23T22:06:46.080Z,1.23
2023-01-23T22:09:36.816Z,1.40
2023-01-23T22:12:05.538Z,1.90
2023-01-23T22:14:33.163Z,1.90
2023-01-23T22:17:00.864Z,1.80
2023-01-23T22:19:28.935Z,1.30
2023-01-23T22:21:57.307Z,1.40
2023-01-23T22:24:24.544Z,1.00
2023-01-23T22:26:52.779Z,1.00
2023-01-23T22:29:20.474Z,1.00
2023-01-23T22:31:48.724Z,1.20
2023-01-23T22:34:17.016Z,1.00
2023-01-23T22:36:45.042Z,0.80
2023-01-23T22:39:12.544Z,1.10
2023-01-23T22:41:40.462Z,1.20
2023-01-23T22:44:08.671Z,1.40
2023-01-23T22:46:37.009Z,1.00
2023-01-23T22:49:05.167Z,1.60
2023-01-23T22:51:32.822Z,1.50
2023-01-23T22:54:00.459Z,1.33
2023-01-23T22:56:28.528Z,1.53
2023-01-23T22:58:56.095Z,1.67
2023-01-23T23:01:23.517Z,1.90
2023-01-23T23:03:51.616Z,1.70
2023-01-23T23:06:19.454Z,3.00
2023-01-23T23:08:48.147Z,3.43
2023-01-23T23:11:18.220Z,2.30
2023-01-23T23:13:45.488Z,2.00
2023-01-23T23:16:22.156Z,1.80
2023-01-23T23:18:51.774Z,1.70
2023-01-23T23:21:20.986Z,1.67
2023-01-23T23:23:49.086Z,1.40
2023-01-23T23:26:17.356Z,1.70
2023-01-23T23:28:45.617Z,1.80
2023-01-23T23:31:13.511Z,1.87
2023-01-23T23:33:41.639Z,1.83
2023-01-23T23:36:10.400Z,1.63
2023-01-23T23:38:38.234Z,1.63
2023-01-23T23:41:11.733Z,1.70
2023-01-23T23:43:39.200Z,1.60
2023-01-23T23:46:07.309Z,1.57
2023-01-23T23:48:35.963Z,1.60
2023-01-23T23:51:04.802Z,1.67
2023-01-23T23:53:32.914Z,1.60
2023-01-23T23:56:01.164Z,1.37
2023-01-23T23:58:29.011Z,1.70
